Time;durP1;ratioP1;P1;durP2;ratioP2;P2;SDS_P1;SDS_P2;PMS_P1;PMS_P2;Temp;Humidity;BMP_temperature;BMP_pressure;BME280_temperature;BME280_humidity;BME280_pressure;Samples;Min_cycle;Max_cycle;Signal;HPM_P1;HPM_P2
2023/03/12 00:00:33;;;;;;;7.55;4.57;;;0.50;99.90;;;;;;5048567;28;20041;-66
2023/03/12 00:02:58;;;;;;;7.55;4.70;;;0.50;99.90;;;;;;5051547;28;20108;-67
2023/03/12 00:05:27;;;;;;;10.88;4.68;;;0.50;99.90;;;;;;5050497;28;20120;-66
2023/03/12 00:07:53;;;;;;;9.35;4.50;;;0.50;99.90;;;;;;5050535;28;20112;-66
2023/03/12 00:10:19;;;;;;;7.43;4.30;;;0.40;99.90;;;;;;5035394;28;20136;-66
2023/03/12 00:12:45;;;;;;;9.20;4.38;;;0.40;99.90;;;;;;5049762;28;20036;-66
2023/03/12 00:15:11;;;;;;;16.65;6.97;;;0.40;99.90;;;;;;5051957;28;20445;-66
2023/03/12 00:17:37;;;;;;;22.38;10.57;;;0.40;99.90;;;;;;5051524;28;20037;-67
2023/03/12 00:20:05;;;;;;;33.70;14.15;;;0.30;99.90;;;;;;5051776;28;20507;-66
2023/03/12 00:22:32;;;;;;;38.92;15.05;;;0.30;99.90;;;;;;5051980;28;20048;-68
2023/03/12 00:24:57;;;;;;;42.92;15.88;;;0.30;99.90;;;;;;5051098;28;20055;-66
2023/03/12 00:27:24;;;;;;;39.22;16.05;;;0.30;99.90;;;;;;5034677;28;20056;-66
2023/03/12 00:29:50;;;;;;;35.65;14.02;;;0.20;99.90;;;;;;5050080;28;20037;-66
2023/03/12 00:32:16;;;;;;;38.15;12.50;;;0.20;99.90;;;;;;5052502;28;20035;-66
2023/03/12 00:34:41;;;;;;;19.90;8.65;;;0.30;99.90;;;;;;5047972;28;20045;-66
2023/03/12 00:37:08;;;;;;;18.98;7.20;;;0.30;99.90;;;;;;5035318;28;20102;-66
2023/03/12 00:39:34;;;;;;;12.52;5.25;;;0.30;99.90;;;;;;5051709;28;20531;-66
2023/03/12 00:42:00;;;;;;;12.40;5.15;;;0.40;99.90;;;;;;5054942;28;20047;-66
2023/03/12 00:44:26;;;;;;;9.13;4.97;;;0.50;99.90;;;;;;5050915;28;20037;-66
2023/03/12 00:46:51;;;;;;;7.80;4.18;;;0.50;99.90;;;;;;5051007;28;20048;-66
2023/03/12 00:49:17;;;;;;;6.45;3.60;;;0.50;99.90;;;;;;5050427;28;20493;-66
2023/03/12 00:51:43;;;;;;;9.45;4.50;;;0.50;99.90;;;;;;5051484;28;20045;-66
2023/03/12 00:54:09;;;;;;;10.35;4.82;;;0.50;99.90;;;;;;5051085;28;20076;-66
2023/03/12 00:56:34;;;;;;;9.45;4.30;;;0.50;99.90;;;;;;5034471;28;20044;-68
2023/03/12 00:59:00;;;;;;;20.27;8.60;;;0.50;99.90;;;;;;5051688;28;20633;-68
2023/03/12 01:01:26;;;;;;;29.80;9.98;;;0.60;99.90;;;;;;5051454;28;20390;-68
2023/03/12 01:03:52;;;;;;;33.30;12.38;;;0.60;99.90;;;;;;5051278;28;20048;-68
2023/03/12 01:06:18;;;;;;;38.45;15.00;;;0.50;99.90;;;;;;5050841;28;20048;-68
2023/03/12 01:08:44;;;;;;;37.50;13.13;;;0.60;99.90;;;;;;5050996;28;20056;-66
2023/03/12 01:11:15;;;;;;;26.08;10.02;;;0.60;99.90;;;;;;5049543;28;20419;-66
2023/03/12 01:13:41;;;;;;;24.40;9.30;;;0.60;99.90;;;;;;5051112;28;20048;-66
2023/03/12 01:16:07;;;;;;;16.80;7.97;;;0.70;99.90;;;;;;5050228;28;20037;-66
2023/03/12 01:18:32;;;;;;;16.17;7.45;;;0.70;99.90;;;;;;5051714;28;20044;-66
2023/03/12 01:20:58;;;;;;;16.58;6.50;;;0.70;99.90;;;;;;5050036;28;20522;-66
2023/03/12 01:23:24;;;;;;;13.50;6.35;;;0.70;99.90;;;;;;5050876;28;20051;-66
2023/03/12 01:25:51;;;;;;;9.15;4.60;;;0.70;99.90;;;;;;5051328;28;20079;-68
2023/03/12 01:28:17;;;;;;;10.05;4.47;;;0.80;99.90;;;;;;5051065;28;20040;-68
2023/03/12 01:30:43;;;;;;;10.90;4.25;;;0.80;99.90;;;;;;5033922;28;20041;-68
2023/03/12 01:33:09;;;;;;;8.40;4.35;;;0.80;99.90;;;;;;5050668;28;20141;-68
2023/03/12 01:35:38;;;;;;;6.50;3.67;;;0.80;99.90;;;;;;5050399;28;20131;-68
2023/03/12 01:38:04;;;;;;;7.45;3.83;;;0.80;99.90;;;;;;5050326;28;20048;-68
2023/03/12 01:40:33;;;;;;;7.60;3.55;;;0.90;99.90;;;;;;5050462;28;20037;-68
2023/03/12 01:43:26;;;;;;;7.95;3.50;;;0.90;99.90;;;;;;5035190;28;20396;-68
2023/03/12 01:46:00;;;;;;;12.73;4.90;;;0.90;99.90;;;;;;5033404;28;20385;-68
2023/03/12 01:48:33;;;;;;;13.98;5.72;;;0.90;99.90;;;;;;5050312;28;20111;-66
2023/03/12 01:51:00;;;;;;;18.50;6.20;;;0.90;99.90;;;;;;5051120;28;20116;-66
2023/03/12 01:53:26;;;;;;;13.55;6.60;;;0.90;99.90;;;;;;5050369;28;20052;-67
2023/03/12 01:55:52;;;;;;;14.77;5.75;;;0.90;99.90;;;;;;5052822;28;20044;-66
2023/03/12 01:58:18;;;;;;;16.67;5.85;;;0.90;99.90;;;;;;5050025;28;20380;-66
2023/03/12 02:00:44;;;;;;;13.75;5.43;;;0.90;99.90;;;;;;5045695;28;20080;-66
2023/03/12 02:03:12;;;;;;;14.20;5.70;;;1.00;99.90;;;;;;5032762;28;20145;-67
2023/03/12 02:05:55;;;;;;;13.55;5.53;;;1.00;99.90;;;;;;5034449;28;20056;-66
2023/03/12 02:08:23;;;;;;;14.48;5.72;;;1.00;99.90;;;;;;5048791;28;20733;-66
2023/03/12 02:10:48;;;;;;;11.10;4.65;;;1.00;99.90;;;;;;5048492;28;20174;-66
2023/03/12 02:13:14;;;;;;;7.65;4.00;;;1.00;99.90;;;;;;5049867;28;20395;-67
2023/03/12 02:15:40;;;;;;;10.38;4.55;;;1.00;99.90;;;;;;5034224;28;20084;-66
2023/03/12 02:18:10;;;;;;;11.18;4.15;;;1.00;99.90;;;;;;5049769;28;20081;-66
2023/03/12 02:20:40;;;;;;;8.55;4.28;;;1.00;99.90;;;;;;5047271;28;20044;-66
2023/03/12 02:23:17;;;;;;;9.75;4.18;;;1.00;99.90;;;;;;5049231;28;20037;-68
2023/03/12 02:25:46;;;;;;;9.40;4.00;;;1.00;99.90;;;;;;5048491;28;20045;-67
2023/03/12 02:28:15;;;;;;;9.88;4.15;;;1.10;99.90;;;;;;5049041;28;20112;-67
2023/03/12 02:30:46;;;;;;;14.18;4.80;;;1.00;99.90;;;;;;5048127;28;20041;-67
2023/03/12 02:33:13;;;;;;;11.98;4.72;;;1.10;99.90;;;;;;5032887;28;20045;-67
2023/03/12 02:35:39;;;;;;;10.85;4.47;;;1.10;99.90;;;;;;5048938;28;20036;-67
2023/03/12 02:38:31;;;;;;;11.48;4.88;;;1.10;99.90;;;;;;5049336;28;20036;-66
2023/03/12 02:41:18;;;;;;;8.88;3.95;;;1.10;99.90;;;;;;5050421;28;20101;-67
2023/03/12 02:43:48;;;;;;;10.43;4.50;;;1.10;99.90;;;;;;5048158;28;20385;-66
2023/03/12 02:46:14;;;;;;;7.00;3.60;;;1.10;99.90;;;;;;5049186;28;20122;-67
2023/03/12 02:48:40;;;;;;;7.88;3.45;;;1.20;99.90;;;;;;5047474;28;20044;-67
2023/03/12 02:51:06;;;;;;;5.78;3.42;;;1.20;99.90;;;;;;5048922;28;20037;-67
2023/03/12 02:53:32;;;;;;;5.32;3.47;;;1.20;99.90;;;;;;5048902;28;20040;-67
2023/03/12 02:55:57;;;;;;;6.30;3.20;;;1.20;99.90;;;;;;5048885;28;20115;-67
2023/03/12 02:58:23;;;;;;;6.43;3.72;;;1.30;99.90;;;;;;5048663;28;20040;-66
2023/03/12 03:00:49;;;;;;;5.80;3.70;;;1.30;99.90;;;;;;5048757;28;20136;-67
2023/03/12 03:03:15;;;;;;;6.80;3.40;;;1.30;99.90;;;;;;5049235;28;20048;-67
2023/03/12 03:05:40;;;;;;;8.02;3.70;;;1.30;99.90;;;;;;5031172;28;20057;-67
2023/03/12 03:08:06;;;;;;;7.90;3.97;;;1.30;99.90;;;;;;5048470;28;20354;-67
2023/03/12 03:10:32;;;;;;;4.97;3.65;;;1.20;99.90;;;;;;5047071;28;20045;-67
2023/03/12 03:12:58;;;;;;;6.13;3.72;;;1.30;99.90;;;;;;5048738;28;20037;-67
2023/03/12 03:15:24;;;;;;;6.70;4.00;;;1.30;99.90;;;;;;5050937;28;20531;-67
2023/03/12 03:17:50;;;;;;;8.00;4.05;;;1.30;99.90;;;;;;5049006;28;20549;-67
2023/03/12 03:20:16;;;;;;;6.47;4.13;;;1.30;99.90;;;;;;5047823;28;20040;-67
2023/03/12 03:22:41;;;;;;;9.05;3.92;;;1.30;99.90;;;;;;5048621;28;20108;-67
2023/03/12 03:25:09;;;;;;;8.60;4.15;;;1.30;99.90;;;;;;5032038;28;20381;-67
2023/03/12 03:27:35;;;;;;;9.32;3.80;;;1.30;99.90;;;;;;5049365;28;20391;-67
2023/03/12 03:30:01;;;;;;;7.25;4.22;;;1.30;99.90;;;;;;5048516;28;20124;-67
2023/03/12 03:32:27;;;;;;;8.32;4.30;;;1.30;99.90;;;;;;5046345;28;20064;-67
2023/03/12 03:34:52;;;;;;;9.80;4.35;;;1.30;99.90;;;;;;5049724;28;20072;-67
2023/03/12 03:37:18;;;;;;;7.78;4.47;;;1.30;99.90;;;;;;5035571;28;20126;-68
2023/03/12 03:39:44;;;;;;;7.18;3.95;;;1.30;99.90;;;;;;5055960;28;20041;-67
2023/03/12 03:42:09;;;;;;;7.07;3.95;;;1.30;99.90;;;;;;5050858;28;20561;-68
2023/03/12 03:44:35;;;;;;;10.98;4.20;;;1.30;99.90;;;;;;5052987;28;20029;-67
2023/03/12 03:47:01;;;;;;;7.18;4.28;;;1.30;99.90;;;;;;5052509;28;20056;-68
2023/03/12 03:49:27;;;;;;;7.93;3.80;;;1.30;99.90;;;;;;5049606;28;20037;-67
2023/03/12 03:51:52;;;;;;;9.27;3.92;;;1.30;99.90;;;;;;5051104;28;20396;-67
2023/03/12 03:54:18;;;;;;;11.77;4.35;;;1.30;99.90;;;;;;5052249;28;20123;-67
2023/03/12 03:56:44;;;;;;;8.25;4.20;;;1.30;99.90;;;;;;5052332;28;20036;-67
2023/03/12 03:59:10;;;;;;;7.18;4.32;;;1.30;99.90;;;;;;5051998;28;20057;-67
2023/03/12 04:01:36;;;;;;;9.20;4.10;;;1.30;99.90;;;;;;5047936;28;20137;-68
2023/03/12 04:04:02;;;;;;;9.45;4.30;;;1.30;99.90;;;;;;5051139;28;20056;-67
2023/03/12 04:06:28;;;;;;;9.20;3.58;;;1.30;99.90;;;;;;5067516;28;20492;-67
2023/03/12 04:08:56;;;;;;;6.97;4.00;;;1.40;99.90;;;;;;5051289;28;20056;-67
2023/03/12 04:11:22;;;;;;;9.13;4.00;;;1.30;99.90;;;;;;5035108;28;20048;-68
2023/03/12 04:13:48;;;;;;;8.07;3.88;;;1.40;99.90;;;;;;5051382;28;20503;-67
2023/03/12 04:16:15;;;;;;;7.72;3.90;;;1.40;99.90;;;;;;5035212;28;20045;-67
2023/03/12 04:18:41;;;;;;;8.25;3.90;;;1.40;99.90;;;;;;5051725;28;20117;-67
2023/03/12 04:21:09;;;;;;;6.60;3.70;;;1.40;99.90;;;;;;5051980;28;20047;-67
2023/03/12 04:23:35;;;;;;;7.15;3.55;;;1.40;99.90;;;;;;5068229;28;20041;-67
2023/03/12 04:26:01;;;;;;;8.05;3.83;;;1.40;99.90;;;;;;5051701;28;20045;-68
2023/03/12 04:28:27;;;;;;;9.73;4.28;;;1.50;99.90;;;;;;5052001;28;20040;-67
2023/03/12 04:31:00;;;;;;;8.98;3.67;;;1.40;99.90;;;;;;5051933;28;20037;-67
2023/03/12 04:33:28;;;;;;;5.20;3.63;;;1.50;99.90;;;;;;5051965;28;20037;-67
2023/03/12 04:35:53;;;;;;;7.90;4.10;;;1.50;99.90;;;;;;5050900;28;20043;-67
2023/03/12 04:38:22;;;;;;;8.48;3.92;;;1.50;99.90;;;;;;5051782;28;20033;-67
2023/03/12 04:41:00;;;;;;;6.13;4.18;;;1.50;99.90;;;;;;5051376;28;20068;-67
2023/03/12 04:43:27;;;;;;;9.45;4.00;;;1.50;99.90;;;;;;5051631;28;20043;-67
2023/03/12 04:45:52;;;;;;;8.05;3.47;;;1.50;99.90;;;;;;5049120;28;20153;-67
2023/03/12 04:48:18;;;;;;;10.07;3.90;;;1.50;99.90;;;;;;5051640;28;20029;-67
2023/03/12 04:50:44;;;;;;;8.68;3.97;;;1.50;99.90;;;;;;5051162;28;20053;-67
2023/03/12 04:53:10;;;;;;;5.57;3.72;;;1.60;99.90;;;;;;5051256;28;20033;-67
2023/03/12 04:55:35;;;;;;;6.57;3.67;;;1.50;99.90;;;;;;5051289;28;20041;-67
2023/03/12 04:58:01;;;;;;;6.50;3.80;;;1.60;99.90;;;;;;5051447;28;20094;-67
2023/03/12 05:00:27;;;;;;;8.65;4.40;;;1.60;99.90;;;;;;5051330;28;20033;-67
2023/03/12 05:02:53;;;;;;;7.90;4.03;;;1.60;99.90;;;;;;5051256;28;20317;-67
2023/03/12 05:05:22;;;;;;;11.50;4.40;;;1.60;99.90;;;;;;5050854;28;20045;-68
2023/03/12 05:07:48;;;;;;;8.73;3.97;;;1.60;99.90;;;;;;5034005;28;20085;-67
2023/03/12 05:10:13;;;;;;;10.55;4.38;;;1.60;99.90;;;;;;5050967;28;20095;-68
2023/03/12 05:12:39;;;;;;;9.20;4.30;;;1.70;99.90;;;;;;5051620;28;20048;-67
2023/03/12 05:15:05;;;;;;;11.48;4.20;;;1.70;99.90;;;;;;5050778;28;20040;-68
2023/03/12 05:17:31;;;;;;;8.10;4.57;;;1.70;99.90;;;;;;5049879;28;20120;-67
2023/03/12 05:19:56;;;;;;;7.85;4.55;;;1.70;99.90;;;;;;5050425;28;20116;-68
2023/03/12 05:22:22;;;;;;;7.20;3.92;;;1.70;99.90;;;;;;5050535;28;20503;-68
2023/03/12 05:24:48;;;;;;;8.57;4.50;;;1.70;99.90;;;;;;5050656;28;20056;-67
2023/03/12 05:27:13;;;;;;;11.25;4.88;;;1.70;99.90;;;;;;5050544;28;20041;-68
2023/03/12 05:29:39;;;;;;;7.43;4.28;;;1.70;99.90;;;;;;5049469;28;20041;-68
2023/03/12 05:32:06;;;;;;;12.15;4.45;;;1.70;99.90;;;;;;5050263;28;20087;-68
2023/03/12 05:34:32;;;;;;;10.25;4.57;;;1.70;99.90;;;;;;5050408;28;20116;-68
2023/03/12 05:36:58;;;;;;;8.15;4.65;;;1.70;99.90;;;;;;5050471;28;20127;-68
2023/03/12 05:39:24;;;;;;;9.02;4.15;;;1.70;99.90;;;;;;5048385;28;20036;-68
2023/03/12 05:41:52;;;;;;;6.55;3.92;;;1.70;99.90;;;;;;5050494;28;20414;-68
2023/03/12 05:44:18;;;;;;;7.93;4.80;;;1.70;99.90;;;;;;5050363;28;20049;-68
2023/03/12 05:46:44;;;;;;;6.90;4.43;;;1.70;99.90;;;;;;5049297;28;20496;-68
2023/03/12 05:49:10;;;;;;;6.28;4.15;;;1.70;99.90;;;;;;5050346;28;20041;-68
2023/03/12 05:51:36;;;;;;;10.95;4.40;;;1.70;99.90;;;;;;5050011;28;20107;-68
2023/03/12 05:54:02;;;;;;;9.02;4.43;;;1.70;99.90;;;;;;5033211;28;20045;-68
2023/03/12 05:56:28;;;;;;;7.15;4.63;;;1.70;99.90;;;;;;5048159;28;20033;-68
2023/03/12 05:58:53;;;;;;;10.45;4.90;;;1.80;99.90;;;;;;5050061;28;20055;-68
2023/03/12 06:01:25;;;;;;;10.32;5.00;;;1.70;99.90;;;;;;5049762;28;20037;-69
2023/03/12 06:03:51;;;;;;;11.00;5.03;;;1.70;99.90;;;;;;5048157;28;20105;-68
2023/03/12 06:06:17;;;;;;;10.95;4.70;;;1.70;99.90;;;;;;5049335;28;20036;-68
2023/03/12 06:08:43;;;;;;;10.25;5.10;;;1.70;99.90;;;;;;5048618;28;20111;-69
2023/03/12 06:11:10;;;;;;;9.02;5.18;;;1.70;99.90;;;;;;5048368;28;20119;-68
2023/03/12 06:13:36;;;;;;;10.65;5.20;;;1.70;99.90;;;;;;5049234;28;20094;-68
2023/03/12 06:16:23;;;;;;;8.55;5.00;;;1.70;99.90;;;;;;5054220;28;20123;-68
2023/03/12 06:18:56;;;;;;;9.38;4.60;;;1.80;99.90;;;;;;5048842;28;20052;-68
2023/03/12 06:21:24;;;;;;;9.75;5.32;;;1.80;99.90;;;;;;5047107;28;20037;-68
2023/03/12 06:23:51;;;;;;;8.45;5.70;;;1.80;99.90;;;;;;5032203;28;20098;-68
2023/03/12 06:26:17;;;;;;;12.77;6.35;;;1.80;99.90;;;;;;5049316;28;20202;-68
2023/03/12 06:28:44;;;;;;;10.85;5.30;;;1.80;99.90;;;;;;5049382;28;20048;-67
2023/03/12 06:31:10;;;;;;;14.60;5.43;;;1.80;99.90;;;;;;5048399;28;20489;-69
2023/03/12 06:33:35;;;;;;;12.57;5.40;;;1.80;99.90;;;;;;5030342;28;20045;-68
2023/03/12 06:36:03;;;;;;;10.30;5.05;;;1.90;99.90;;;;;;5048331;28;20051;-68
2023/03/12 06:38:29;;;;;;;13.13;5.75;;;1.90;99.90;;;;;;5074689;28;20056;-67
2023/03/12 06:41:13;;;;;;;9.70;6.18;;;1.90;99.90;;;;;;5048812;28;20415;-68
2023/03/12 06:43:41;;;;;;;10.07;5.20;;;1.90;99.90;;;;;;5048821;28;20492;-68
2023/03/12 06:46:10;;;;;;;13.27;5.90;;;1.90;99.90;;;;;;5049265;28;20052;-68
2023/03/12 06:48:36;;;;;;;11.18;5.45;;;1.90;99.90;;;;;;5050904;28;20095;-68
2023/03/12 06:51:04;;;;;;;13.88;5.70;;;1.90;99.90;;;;;;5061472;28;20131;-69
2023/03/12 06:53:31;;;;;;;9.52;5.90;;;1.90;99.90;;;;;;5049214;28;20500;-69
2023/03/12 06:55:57;;;;;;;8.60;5.82;;;1.90;99.90;;;;;;5054182;28;20481;-68
2023/03/12 06:58:23;;;;;;;12.40;5.97;;;2.00;99.90;;;;;;5048214;28;20037;-69
2023/03/12 07:00:49;;;;;;;9.45;5.45;;;1.90;99.90;;;;;;5048499;28;20063;-68
2023/03/12 07:03:15;;;;;;;11.95;5.75;;;1.90;99.90;;;;;;5049208;28;20173;-67
2023/03/12 07:05:45;;;;;;;9.02;5.65;;;1.90;99.90;;;;;;5032553;28;20496;-68
2023/03/12 07:08:12;;;;;;;10.95;6.20;;;1.90;99.90;;;;;;5049312;28;20033;-69
2023/03/12 07:10:37;;;;;;;9.43;5.63;;;1.90;99.90;;;;;;5046991;28;20052;-69
2023/03/12 07:13:03;;;;;;;9.50;6.00;;;1.90;99.90;;;;;;5048786;28;20047;-68
2023/03/12 07:15:29;;;;;;;10.73;6.15;;;1.90;99.90;;;;;;5048895;28;20049;-67
2023/03/12 07:17:58;;;;;;;12.48;5.93;;;1.90;99.90;;;;;;5031372;28;20041;-67
2023/03/12 07:20:23;;;;;;;9.02;5.40;;;1.90;99.90;;;;;;5048964;28;20045;-68
2023/03/12 07:22:49;;;;;;;8.50;5.57;;;1.90;99.90;;;;;;5048370;28;20041;-69
2023/03/12 07:25:15;;;;;;;10.98;5.43;;;1.90;99.90;;;;;;5048533;28;20029;-69
2023/03/12 07:27:40;;;;;;;13.43;5.80;;;1.80;99.90;;;;;;5048288;28;20068;-68
2023/03/12 07:30:07;;;;;;;11.60;5.82;;;1.80;99.90;;;;;;5041995;28;20041;-69
2023/03/12 07:32:34;;;;;;;11.02;5.75;;;1.80;99.90;;;;;;5027374;28;20061;-69
2023/03/12 07:34:59;;;;;;;10.82;5.68;;;1.80;99.90;;;;;;5045970;28;20480;-68
2023/03/12 07:37:25;;;;;;;9.63;6.10;;;1.70;99.90;;;;;;5049404;28;20102;-68
2023/03/12 07:39:53;;;;;;;8.02;5.25;;;1.70;99.90;;;;;;5029822;28;20444;-68
2023/03/12 07:42:19;;;;;;;12.23;6.60;;;1.70;99.90;;;;;;5046265;28;20434;-68
2023/03/12 07:44:44;;;;;;;8.20;5.75;;;1.70;99.90;;;;;;5046350;28;20140;-67
2023/03/12 07:47:10;;;;;;;10.05;5.85;;;1.60;99.90;;;;;;5046971;28;20484;-67
2023/03/12 07:49:36;;;;;;;10.05;5.65;;;1.60;99.90;;;;;;5047801;28;20056;-67
2023/03/12 07:52:02;;;;;;;8.73;5.45;;;1.60;99.90;;;;;;5045801;28;20697;-68
2023/03/12 07:54:29;;;;;;;9.20;5.70;;;1.60;99.90;;;;;;5047318;28;20098;-68
2023/03/12 07:56:58;;;;;;;7.43;5.60;;;1.60;99.90;;;;;;5046611;28;20120;-67
2023/03/12 07:59:25;;;;;;;14.27;5.78;;;1.60;99.90;;;;;;5049419;28;20076;-68
2023/03/12 08:01:51;;;;;;;10.15;6.03;;;1.70;99.90;;;;;;5047024;28;20044;-68
2023/03/12 08:04:16;;;;;;;12.20;6.25;;;1.70;99.90;;;;;;5047647;28;20124;-67
2023/03/12 08:06:42;;;;;;;8.85;5.38;;;1.70;99.90;;;;;;5047721;28;20053;-68
2023/03/12 08:09:08;;;;;;;8.10;5.78;;;1.70;99.90;;;;;;5049403;28;20395;-68
2023/03/12 08:11:35;;;;;;;8.73;5.50;;;1.70;99.90;;;;;;5081062;28;20061;-68
2023/03/12 08:14:02;;;;;;;9.18;5.85;;;1.70;99.90;;;;;;5047737;28;20044;-68
2023/03/12 08:16:28;;;;;;;10.73;5.85;;;1.70;99.90;;;;;;5042710;28;20087;-68
2023/03/12 08:18:53;;;;;;;10.82;5.90;;;1.70;99.90;;;;;;5045000;28;20064;-69
2023/03/12 08:21:19;;;;;;;9.77;5.25;;;1.70;99.90;;;;;;5049289;28;20048;-68
2023/03/12 08:23:44;;;;;;;7.53;4.93;;;1.70;99.90;;;;;;5050889;28;20053;-68
2023/03/12 08:26:10;;;;;;;13.40;5.88;;;1.70;99.90;;;;;;5033787;28;20076;-68
2023/03/12 08:28:36;;;;;;;8.40;5.10;;;1.70;99.90;;;;;;5052012;28;20112;-68
2023/03/12 08:31:03;;;;;;;10.65;5.45;;;1.70;99.90;;;;;;5053049;28;20037;-66
2023/03/12 08:33:29;;;;;;;8.35;5.00;;;1.70;99.90;;;;;;5051670;28;20032;-68
2023/03/12 08:35:54;;;;;;;8.85;4.93;;;1.70;99.90;;;;;;5034811;28;20125;-68
2023/03/12 08:38:20;;;;;;;11.35;4.95;;;1.80;99.90;;;;;;5051612;28;20036;-67
2023/03/12 08:40:52;;;;;;;11.07;4.78;;;1.80;99.90;;;;;;5053867;28;20098;-68
2023/03/12 08:43:18;;;;;;;8.80;5.53;;;1.90;99.90;;;;;;5051644;28;20032;-68
2023/03/12 08:45:44;;;;;;;10.65;5.78;;;1.90;99.90;;;;;;5051855;28;20541;-68
2023/03/12 08:48:09;;;;;;;7.78;4.90;;;1.90;99.90;;;;;;5034852;28;20107;-68
2023/03/12 08:50:35;;;;;;;9.77;5.03;;;1.90;99.90;;;;;;5051501;28;20037;-68
2023/03/12 08:53:01;;;;;;;9.35;5.60;;;1.90;99.90;;;;;;5053059;28;20541;-68
2023/03/12 08:55:28;;;;;;;8.95;5.13;;;1.90;99.90;;;;;;5028214;28;20048;-67
2023/03/12 08:57:55;;;;;;;8.95;5.40;;;1.90;99.90;;;;;;5049706;28;20513;-68
2023/03/12 09:00:21;;;;;;;8.20;5.93;;;2.00;99.90;;;;;;5049627;28;20047;-68
2023/03/12 09:02:47;;;;;;;11.07;6.53;;;2.00;99.90;;;;;;5037040;28;20051;-68
2023/03/12 09:05:13;;;;;;;8.00;5.03;;;2.00;99.90;;;;;;5034671;28;20037;-68
2023/03/12 09:07:39;;;;;;;8.23;5.47;;;2.00;99.90;;;;;;5035082;28;20041;-68
2023/03/12 09:10:05;;;;;;;7.47;4.93;;;2.00;99.90;;;;;;5050214;28;20059;-68
2023/03/12 09:12:31;;;;;;;9.48;5.15;;;2.00;99.90;;;;;;5052075;28;20036;-68
2023/03/12 09:14:57;;;;;;;9.32;4.90;;;2.00;99.90;;;;;;5049173;28;20037;-68
2023/03/12 09:17:22;;;;;;;8.82;5.35;;;2.10;99.90;;;;;;5035171;28;20041;-68
2023/03/12 09:19:48;;;;;;;10.98;5.05;;;2.10;99.90;;;;;;5050677;28;20036;-68
2023/03/12 09:22:13;;;;;;;7.78;5.03;;;2.10;99.90;;;;;;5050684;28;20053;-67
2023/03/12 09:24:39;;;;;;;7.10;5.60;;;2.10;99.90;;;;;;5031440;28;20085;-68
2023/03/12 09:27:05;;;;;;;8.18;5.18;;;2.10;99.90;;;;;;5047838;28;20074;-68
2023/03/12 09:29:31;;;;;;;9.18;5.68;;;2.10;99.90;;;;;;5049781;28;20516;-68
2023/03/12 09:31:57;;;;;;;7.07;5.20;;;2.20;99.90;;;;;;5049338;28;20033;-68
2023/03/12 09:34:23;;;;;;;8.73;6.00;;;2.20;99.90;;;;;;5032717;28;20425;-68
2023/03/12 09:36:49;;;;;;;12.48;6.60;;;2.20;99.90;;;;;;5047463;28;20041;-68
2023/03/12 09:39:15;;;;;;;10.48;6.13;;;2.30;99.90;;;;;;5050199;28;20488;-68
2023/03/12 09:41:43;;;;;;;9.15;6.32;;;2.30;99.90;;;;;;5047264;28;20048;-68
2023/03/12 09:44:37;;;;;;;8.68;5.75;;;2.30;99.90;;;;;;5047542;28;20048;-68
2023/03/12 09:47:11;;;;;;;10.95;6.43;;;2.40;99.90;;;;;;5049986;28;20041;-68
2023/03/12 09:49:50;;;;;;;8.70;5.90;;;2.40;99.90;;;;;;5063854;28;20048;-68
2023/03/12 09:52:32;;;;;;;6.75;5.50;;;2.50;99.90;;;;;;5048895;28;20025;-68
2023/03/12 09:55:14;;;;;;;9.15;5.88;;;2.50;99.90;;;;;;5048879;28;20044;-68
2023/03/12 09:57:40;;;;;;;9.20;5.93;;;2.60;99.90;;;;;;5056462;28;20449;-68
2023/03/12 10:00:12;;;;;;;7.55;6.10;;;2.60;99.90;;;;;;5033166;28;20125;-67
2023/03/12 10:02:38;;;;;;;10.07;6.35;;;2.70;99.90;;;;;;5045895;28;20044;-68
2023/03/12 10:05:33;;;;;;;8.13;6.35;;;2.70;99.90;;;;;;5048263;28;20049;-68
2023/03/12 10:08:33;;;;;;;8.80;6.63;;;2.70;99.90;;;;;;5066711;28;20127;-67
2023/03/12 10:11:05;;;;;;;12.18;7.35;;;2.80;99.90;;;;;;5017367;28;20049;-68
2023/03/12 10:13:52;;;;;;;10.43;6.63;;;2.80;99.90;;;;;;5058532;28;20041;-68
2023/03/12 10:16:50;;;;;;;8.25;6.47;;;2.80;99.90;;;;;;5038235;28;20512;-69
2023/03/12 10:19:38;;;;;;;7.68;6.55;;;2.90;99.90;;;;;;5049575;28;20152;-68
2023/03/12 10:22:04;;;;;;;9.65;6.75;;;3.00;99.90;;;;;;5021802;28;20396;-68
2023/03/12 10:25:00;;;;;;;10.38;7.20;;;3.10;99.90;;;;;;5045258;28;20045;-68
2023/03/12 10:27:31;;;;;;;9.45;6.78;;;3.10;99.90;;;;;;5059099;28;20051;-69
2023/03/12 10:29:58;;;;;;;8.70;7.47;;;3.10;99.90;;;;;;5025954;28;20790;-68
2023/03/12 10:32:28;;;;;;;9.45;7.13;;;3.20;99.90;;;;;;5032400;28;20052;-68
2023/03/12 10:34:59;;;;;;;9.48;7.47;;;3.20;99.90;;;;;;5064654;28;20053;-68
2023/03/12 10:37:27;;;;;;;10.30;7.32;;;3.20;99.90;;;;;;5051102;28;20051;-72
2023/03/12 10:39:59;;;;;;;8.68;6.95;;;3.30;99.90;;;;;;5012024;28;20041;-68
2023/03/12 10:42:28;;;;;;;9.13;7.65;;;3.30;99.90;;;;;;5004439;28;20116;-68
2023/03/12 10:44:57;;;;;;;11.48;8.07;;;3.40;99.90;;;;;;5012040;28;20503;-67
2023/03/12 10:47:33;;;;;;;11.52;7.70;;;3.50;99.90;;;;;;5058640;28;20037;-68
2023/03/12 10:50:11;;;;;;;11.65;7.20;;;3.50;99.90;;;;;;5049039;28;20064;-68
2023/03/12 10:52:37;;;;;;;12.70;7.97;;;3.60;99.90;;;;;;5052790;28;20487;-68
2023/03/12 10:55:19;;;;;;;9.02;7.93;;;3.60;99.90;;;;;;5048690;28;20123;-68
2023/03/12 10:57:45;;;;;;;12.77;7.95;;;3.60;99.90;;;;;;5033050;28;20064;-70
2023/03/12 11:00:23;;;;;;;12.38;9.23;;;3.70;99.90;;;;;;5049022;28;20040;-68
2023/03/12 11:02:57;;;;;;;9.48;8.43;;;3.80;99.90;;;;;;5048811;28;20036;-67
2023/03/12 11:05:49;;;;;;;9.65;7.55;;;3.80;99.90;;;;;;5049001;28;20037;-69
2023/03/12 11:08:38;;;;;;;10.82;8.20;;;3.90;99.90;;;;;;5047404;28;20049;-68
2023/03/12 11:11:04;;;;;;;11.07;9.00;;;3.90;99.90;;;;;;5045727;28;20136;-68
2023/03/12 11:13:38;;;;;;;12.98;9.05;;;4.00;99.90;;;;;;5048084;28;20037;-67
2023/03/12 11:16:16;;;;;;;13.75;9.20;;;4.00;99.90;;;;;;5048777;28;20049;-71
2023/03/12 11:19:02;;;;;;;12.60;10.20;;;4.00;99.90;;;;;;5048646;28;20133;-68
2023/03/12 11:21:35;;;;;;;13.57;9.68;;;4.10;99.90;;;;;;5049945;28;20080;-69
2023/03/12 11:24:13;;;;;;;15.43;10.60;;;4.20;99.90;;;;;;5031924;28;20041;-70
2023/03/12 11:26:48;;;;;;;17.30;10.80;;;4.30;99.90;;;;;;5048713;28;20051;-69
2023/03/12 11:29:24;;;;;;;17.42;11.68;;;4.40;99.90;;;;;;5051872;28;20091;-68
2023/03/12 11:32:10;;;;;;;18.50;11.60;;;4.50;99.90;;;;;;5048709;28;20090;-68
2023/03/12 11:34:38;;;;;;;21.45;12.18;;;4.60;99.90;;;;;;5028121;28;20088;-69
2023/03/12 11:37:18;;;;;;;16.67;12.80;;;4.70;99.90;;;;;;5032481;28;20057;-70
2023/03/12 11:40:08;;;;;;;21.08;12.95;;;4.80;99.90;;;;;;5052778;28;20052;-71
2023/03/12 11:42:40;;;;;;;19.17;13.00;;;4.90;99.90;;;;;;5048928;28;20434;-69
2023/03/12 11:45:15;;;;;;;20.03;13.87;;;5.00;99.90;;;;;;5049930;28;20448;-68
2023/03/12 11:47:55;;;;;;;22.50;14.40;;;5.10;99.90;;;;;;5048758;28;20056;-71
2023/03/12 11:50:27;;;;;;;20.05;13.15;;;5.20;99.90;;;;;;5048101;28;20029;-69
2023/03/12 11:53:01;;;;;;;21.67;13.88;;;5.30;99.90;;;;;;5048171;28;20090;-68
2023/03/12 11:55:55;;;;;;;23.63;14.77;;;5.30;99.90;;;;;;5033056;28;20041;-69
2023/03/12 11:58:58;;;;;;;23.20;15.35;;;5.40;99.90;;;;;;5051709;28;20090;-68
2023/03/12 12:01:50;;;;;;;26.98;16.30;;;5.60;99.90;;;;;;5051207;28;20522;-69
2023/03/12 12:04:16;;;;;;;26.25;16.42;;;5.60;99.90;;;;;;5052365;28;20487;-67
2023/03/12 12:07:05;;;;;;;33.05;17.40;;;5.70;99.90;;;;;;5051944;28;20044;-68
2023/03/12 12:10:09;;;;;;;27.85;16.25;;;5.90;99.90;;;;;;5051084;28;20045;-69
2023/03/12 12:12:53;;;;;;;31.38;18.95;;;6.10;99.90;;;;;;5079312;28;20063;-70
2023/03/12 12:15:36;;;;;;;35.55;19.58;;;6.30;99.90;;;;;;5053662;28;20037;-71
2023/03/12 12:18:22;;;;;;;;;;;6.40;99.90;;;;;;5053981;28;20045;-69
2023/03/12 12:21:02;;;;;;;36.85;19.70;;;6.50;99.90;;;;;;5051859;28;20371;-70
2023/03/12 12:23:55;;;;;;;37.88;20.33;;;6.60;99.90;;;;;;5051472;28;20112;-68
2023/03/12 12:26:41;;;;;;;38.88;20.05;;;6.60;99.90;;;;;;5033849;28;20500;-69
2023/03/12 12:29:25;;;;;;;39.53;20.48;;;6.80;99.90;;;;;;5082639;28;20041;-69
2023/03/12 12:31:51;;;;;;;36.00;19.23;;;6.90;99.90;;;;;;5053076;28;20036;-70
2023/03/12 12:34:41;;;;;;;42.53;19.67;;;6.90;99.90;;;;;;5051311;28;20115;-69
2023/03/12 12:37:13;;;;;;;39.58;19.13;;;6.90;99.90;;;;;;5051777;28;20480;-68
2023/03/12 12:39:44;;;;;;;28.42;17.20;;;7.00;99.90;;;;;;5051466;28;20033;-68
2023/03/12 12:42:15;;;;;;;34.47;19.23;;;7.10;99.90;;;;;;5033629;28;20052;-68
2023/03/12 12:44:50;;;;;;;31.13;18.63;;;7.10;99.90;;;;;;5051050;28;20071;-67
2023/03/12 12:47:24;;;;;;;36.58;19.00;;;7.10;99.90;;;;;;5034250;28;20053;-68
2023/03/12 12:49:57;;;;;;;38.60;18.98;;;7.20;99.90;;;;;;5051692;28;20387;-67
2023/03/12 12:52:24;;;;;;;38.97;20.75;;;7.30;99.90;;;;;;5051298;28;20040;-71
2023/03/12 12:55:34;;;;;;;38.33;20.38;;;7.30;99.90;;;;;;5051234;28;20048;-68
2023/03/12 12:58:19;;;;;;;51.28;20.30;;;7.30;99.90;;;;;;5054662;28;20049;-69
2023/03/12 13:00:53;;;;;;;43.33;20.50;;;7.30;99.90;;;;;;5017364;28;20041;-68
2023/03/12 13:03:22;;;;;;;40.15;20.50;;;7.30;99.90;;;;;;5056649;28;20073;-69